createdAt,value
2022-08-05T00:00:20.261Z,21.70
2022-08-05T00:07:01.021Z,21.60
2022-08-05T00:09:50.491Z,21.60
2022-08-05T00:12:22.764Z,21.50
2022-08-05T00:14:52.773Z,21.50
2022-08-05T00:17:25.701Z,21.40
2022-08-05T00:20:02.481Z,21.40
2022-08-05T00:22:31.689Z,21.30
2022-08-05T00:25:01.186Z,21.30
2022-08-05T00:28:02.118Z,21.30
2022-08-05T00:30:57.347Z,21.30
2022-08-05T00:37:15.768Z,21.30
2022-08-05T00:39:58.732Z,21.20
2022-08-05T00:51:51.050Z,21.20
2022-08-05T00:54:06.834Z,21.20
2022-08-05T00:56:36.936Z,21.10
2022-08-05T00:59:44.139Z,21.10
2022-08-05T01:02:18.692Z,21.10
2022-08-05T01:08:43.265Z,21.20
2022-08-05T01:11:41.067Z,21.20
2022-08-05T01:14:17.642Z,21.20
2022-08-05T01:17:28.905Z,21.30
2022-08-05T01:20:13.788Z,21.30
2022-08-05T01:23:14.252Z,21.30
2022-08-05T01:26:00.243Z,21.30
2022-08-05T01:28:34.263Z,21.30
2022-08-05T01:31:09.687Z,21.30
2022-08-05T01:33:49.028Z,21.30
2022-08-05T01:36:27.924Z,21.20
2022-08-05T01:39:01.192Z,21.20
2022-08-05T01:41:36.711Z,21.20
2022-08-05T01:44:09.817Z,21.20
2022-08-05T01:46:46.255Z,21.20
2022-08-05T01:49:24.063Z,21.20
2022-08-05T01:51:58.658Z,21.20
2022-08-05T01:54:46.317Z,21.20
2022-08-05T01:58:11.649Z,21.20
2022-08-05T02:00:12.081Z,21.20
2022-08-05T02:02:53.649Z,21.20
2022-08-05T02:05:28.524Z,21.10
2022-08-05T02:08:01.019Z,21.10
2022-08-05T02:10:44.815Z,21.10
2022-08-05T02:13:17.708Z,21.10
2022-08-05T02:15:54.278Z,21.10
2022-08-05T02:18:34.275Z,21.10
2022-08-05T02:21:14.968Z,21.10
2022-08-05T02:23:50.211Z,21.10
2022-08-05T02:26:22.931Z,21.10
2022-08-05T02:28:59.110Z,21.00
2022-08-05T02:31:35.040Z,21.00
2022-08-05T02:34:11.795Z,20.90
2022-08-05T02:36:46.798Z,20.90
2022-08-05T02:39:21.532Z,20.90
2022-08-05T02:42:00.592Z,20.90
2022-08-05T02:44:33.874Z,20.80
2022-08-05T02:47:05.629Z,20.80
2022-08-05T02:49:41.665Z,20.80
2022-08-05T02:52:29.519Z,20.80
2022-08-05T02:55:01.512Z,20.80
2022-08-05T02:58:10.336Z,20.80
2022-08-05T03:00:25.475Z,20.80
2022-08-05T03:02:59.750Z,20.80
2022-08-05T03:06:56.939Z,20.80
2022-08-05T03:08:27.014Z,20.80
2022-08-05T03:11:54.625Z,20.80
2022-08-05T03:13:51.940Z,20.70
2022-08-05T03:16:32.761Z,20.70
2022-08-05T03:19:12.995Z,20.70
2022-08-05T03:21:49.833Z,20.70
2022-08-05T03:24:27.557Z,20.70
2022-08-05T03:26:59.783Z,20.70
2022-08-05T03:29:45.520Z,20.70
2022-08-05T03:32:19.579Z,20.70
2022-08-05T03:34:50.441Z,20.70
2022-08-05T03:37:23.585Z,20.70
2022-08-05T03:39:59.214Z,20.70
2022-08-05T03:42:41.629Z,20.70
2022-08-05T03:45:23.327Z,20.70
2022-08-05T03:47:56.865Z,20.70
2022-08-05T03:50:43.790Z,20.70
2022-08-05T03:54:59.153Z,20.70
2022-08-05T03:56:17.971Z,20.80
2022-08-05T03:59:01.393Z,20.80
2022-08-05T04:01:34.216Z,20.80
2022-08-05T04:04:09.643Z,20.80
2022-08-05T04:06:47.433Z,20.90
2022-08-05T04:09:20.283Z,20.90
2022-08-05T04:11:56.754Z,21.00
2022-08-05T04:14:30.646Z,21.00
2022-08-05T04:17:02.855Z,21.10
2022-08-05T04:19:31.797Z,21.10
2022-08-05T04:22:08.931Z,21.10
2022-08-05T04:24:44.572Z,21.20
2022-08-05T04:27:33.341Z,21.20
2022-08-05T04:30:14.150Z,21.30
2022-08-05T04:32:42.787Z,21.30
2022-08-05T04:35:17.422Z,21.40
2022-08-05T04:38:01.373Z,21.40
2022-08-05T04:40:35.817Z,21.40
2022-08-05T04:43:03.977Z,21.50
2022-08-05T04:45:48.066Z,21.60
2022-08-05T04:48:27.268Z,21.60
2022-08-05T04:51:03.697Z,21.70
2022-08-05T04:53:42.830Z,21.80
2022-08-05T04:56:32.832Z,21.90
2022-08-05T04:59:01.042Z,21.90
2022-08-05T05:02:06.992Z,22.00
2022-08-05T05:04:38.289Z,22.00
2022-08-05T05:07:15.874Z,22.10
2022-08-05T05:09:47.861Z,22.20
2022-08-05T05:12:16.905Z,22.20
2022-08-05T05:14:50.797Z,22.30
2022-08-05T05:17:24.347Z,22.30
2022-08-05T05:19:56.580Z,22.40
2022-08-05T05:22:26.476Z,22.50
2022-08-05T05:25:01.329Z,22.50
2022-08-05T05:27:53.562Z,22.60
2022-08-05T05:30:31.463Z,22.60
2022-08-05T05:33:15.946Z,22.70
2022-08-05T05:35:47.042Z,22.70
2022-08-05T05:38:22.497Z,22.80
2022-08-05T05:40:58.774Z,22.90
2022-08-05T05:43:58.329Z,22.90
2022-08-05T05:46:20.489Z,22.90
2022-08-05T05:48:53.132Z,23.00
2022-08-05T05:51:23.914Z,23.00
2022-08-05T05:53:59.000Z,23.00
2022-08-05T05:56:32.675Z,23.10
2022-08-05T05:59:04.084Z,23.10
2022-08-05T06:01:40.023Z,23.20
2022-08-05T06:04:11.852Z,23.20
2022-08-05T06:06:41.563Z,23.20
2022-08-05T06:09:17.693Z,23.40
2022-08-05T06:12:01.810Z,23.40
2022-08-05T06:14:34.763Z,23.40
2022-08-05T06:17:22.419Z,23.50
2022-08-05T06:19:56.938Z,23.60
2022-08-05T06:22:29.856Z,23.60
2022-08-05T06:24:58.896Z,23.70
2022-08-05T06:28:12.174Z,23.70
2022-08-05T06:30:21.231Z,23.70
2022-08-05T06:32:54.065Z,23.80
2022-08-05T06:36:03.669Z,23.90
2022-08-05T06:38:12.891Z,23.90
2022-08-05T06:40:42.135Z,24.00
2022-08-05T06:43:59.085Z,24.00
2022-08-05T06:46:07.462Z,24.00
2022-08-05T06:48:55.672Z,24.10
2022-08-05T06:51:29.946Z,24.10
2022-08-05T06:54:00.010Z,24.20
2022-08-05T06:56:28.331Z,24.20
2022-08-05T06:58:58.036Z,24.30
2022-08-05T07:01:32.751Z,24.30
2022-08-05T07:04:03.142Z,24.40
2022-08-05T07:06:32.249Z,24.40
2022-08-05T07:09:04.188Z,24.50
2022-08-05T07:11:36.777Z,24.50
2022-08-05T07:14:30.261Z,24.70
2022-08-05T07:18:01.084Z,24.60
2022-08-05T07:22:45.856Z,24.90
2022-08-05T07:25:55.682Z,24.90
2022-08-05T07:28:08.236Z,24.90
2022-08-05T07:30:41.918Z,24.90
2022-08-05T07:33:16.467Z,25.00
2022-08-05T07:36:05.113Z,25.00
2022-08-05T07:38:43.703Z,25.10
2022-08-05T07:42:08.595Z,25.20
2022-08-05T07:44:18.758Z,25.20
2022-08-05T07:46:50.369Z,25.20
2022-08-05T07:49:19.580Z,25.20
2022-08-05T07:51:54.363Z,25.30
2022-08-05T07:54:31.391Z,25.40
2022-08-05T07:57:17.554Z,25.50
2022-08-05T07:59:55.626Z,25.50
2022-08-05T08:02:31.406Z,25.50
2022-08-05T08:05:19.579Z,25.50
2022-08-05T08:08:00.005Z,25.50
2022-08-05T08:10:29.440Z,25.60
2022-08-05T08:12:58.966Z,25.70
2022-08-05T08:15:37.210Z,25.70
2022-08-05T08:18:20.777Z,25.80
2022-08-05T08:21:01.805Z,25.80
2022-08-05T08:24:02.442Z,25.80
2022-08-05T08:26:29.797Z,25.80
2022-08-05T08:30:03.324Z,25.80
2022-08-05T08:31:52.217Z,25.90
2022-08-05T08:34:30.911Z,25.90
2022-08-05T08:37:03.205Z,26.00
2022-08-05T08:39:37.413Z,26.00
2022-08-05T08:42:22.462Z,26.20
2022-08-05T08:45:22.151Z,26.20
2022-08-05T08:48:06.981Z,26.30
2022-08-05T08:51:03.372Z,26.30
2022-08-05T08:53:38.041Z,26.30
2022-08-05T08:56:12.875Z,26.30
2022-08-05T08:58:47.721Z,26.30
2022-08-05T09:01:19.798Z,26.30
2022-08-05T09:03:54.230Z,26.40
2022-08-05T09:06:29.825Z,26.40
2022-08-05T09:09:00.535Z,26.50
2022-08-05T09:11:51.980Z,26.60
2022-08-05T09:14:57.763Z,26.60
2022-08-05T09:17:39.900Z,26.60
2022-08-05T09:20:05.067Z,26.70
2022-08-05T09:23:09.012Z,26.70
2022-08-05T09:26:02.518Z,26.80
2022-08-05T09:28:32.044Z,26.80
2022-08-05T09:31:22.661Z,26.80
2022-08-05T09:33:59.571Z,26.90
2022-08-05T09:36:55.186Z,27.00
2022-08-05T09:39:39.507Z,27.00
2022-08-05T09:42:20.247Z,27.00
2022-08-05T09:44:56.345Z,27.10
2022-08-05T09:47:29.674Z,27.20
2022-08-05T09:50:38.020Z,27.20
2022-08-05T09:53:15.585Z,27.30
2022-08-05T09:56:03.786Z,27.30
2022-08-05T09:58:32.839Z,27.30
2022-08-05T10:01:13.253Z,27.30
2022-08-05T10:04:00.076Z,27.30
2022-08-05T10:06:28.860Z,27.40
2022-08-05T10:09:25.129Z,27.50
2022-08-05T10:12:30.170Z,27.50
2022-08-05T10:15:20.475Z,27.60
2022-08-05T10:18:16.576Z,27.60
2022-08-05T10:20:47.950Z,27.70
2022-08-05T10:23:34.777Z,27.80
2022-08-05T10:26:14.368Z,27.80
2022-08-05T10:28:49.178Z,27.90
2022-08-05T10:32:48.937Z,27.90
2022-08-05T10:34:10.002Z,27.90
2022-08-05T10:36:43.095Z,27.90
2022-08-05T10:39:24.188Z,28.00
2022-08-05T10:42:01.415Z,28.00
2022-08-05T10:44:34.098Z,28.10
2022-08-05T10:47:26.585Z,28.00
2022-08-05T10:50:31.900Z,28.00
2022-08-05T10:53:00.240Z,28.10
2022-08-05T10:55:38.514Z,28.10
2022-08-05T10:58:21.703Z,28.20
2022-08-05T11:01:11.516Z,28.30
2022-08-05T11:04:09.310Z,28.40
2022-08-05T11:07:11.945Z,28.50
2022-08-05T11:09:46.948Z,28.60
2022-08-05T11:12:54.490Z,28.60
2022-08-05T11:16:01.362Z,28.60
2022-08-05T11:18:30.199Z,28.80
2022-08-05T11:21:02.111Z,28.90
2022-08-05T11:24:03.996Z,29.00
2022-08-05T11:26:37.090Z,29.10
2022-08-05T11:29:12.518Z,29.20
2022-08-05T11:31:57.235Z,29.30
2022-08-05T11:34:51.393Z,29.40
2022-08-05T11:38:29.409Z,29.50
2022-08-05T11:41:35.289Z,29.60
2022-08-05T11:44:05.025Z,29.60
2022-08-05T11:46:58.404Z,29.70
2022-08-05T11:49:34.147Z,29.70
2022-08-05T11:52:11.601Z,29.80
2022-08-05T11:54:41.582Z,29.80
2022-08-05T11:57:24.215Z,29.90
2022-08-05T11:59:58.612Z,30.00
2022-08-05T12:02:33.185Z,30.10
2022-08-05T12:05:07.010Z,30.10
2022-08-05T12:08:09.257Z,30.20
2022-08-05T12:10:38.542Z,30.20
2022-08-05T12:13:27.755Z,30.30
2022-08-05T12:16:15.533Z,30.30
2022-08-05T12:18:49.367Z,30.40
2022-08-05T12:21:26.819Z,30.50
2022-08-05T12:24:04.415Z,30.60
2022-08-05T12:26:38.094Z,30.70
2022-08-05T12:29:15.966Z,30.70
2022-08-05T12:31:53.544Z,30.80
2022-08-05T12:34:30.390Z,31.00
2022-08-05T12:37:16.917Z,31.20
2022-08-05T12:39:53.779Z,31.30
2022-08-05T12:42:25.337Z,31.40
2022-08-05T12:45:04.113Z,31.50
2022-08-05T12:47:50.346Z,31.70
2022-08-05T12:50:28.057Z,31.70
2022-08-05T12:53:23.859Z,31.90
2022-08-05T12:56:34.526Z,31.90
2022-08-05T12:59:20.874Z,32.00
2022-08-05T13:02:07.140Z,32.20
2022-08-05T13:04:41.728Z,32.30
2022-08-05T13:07:47.787Z,32.40
2022-08-05T13:10:14.228Z,32.50
2022-08-05T13:12:57.957Z,32.60
2022-08-05T13:15:41.795Z,32.70
2022-08-05T13:18:21.189Z,32.80
2022-08-05T13:20:55.593Z,32.80
2022-08-05T13:23:23.978Z,33.00
2022-08-05T13:25:59.347Z,33.10
2022-08-05T13:28:28.819Z,33.20
2022-08-05T13:30:57.364Z,33.50
2022-08-05T13:34:20.918Z,33.70
2022-08-05T13:36:19.587Z,34.20
2022-08-05T13:38:52.003Z,35.10
2022-08-05T13:41:21.317Z,36.40
2022-08-05T13:43:55.154Z,37.60
2022-08-05T13:46:44.383Z,38.60
2022-08-05T13:49:16.199Z,39.70
2022-08-05T13:51:46.305Z,40.70
2022-08-05T13:54:16.494Z,41.40
2022-08-05T13:56:50.769Z,41.90
2022-08-05T13:59:24.050Z,42.50
2022-08-05T14:01:58.242Z,43.20
2022-08-05T14:04:50.836Z,43.80
2022-08-05T14:07:55.400Z,43.90
2022-08-05T14:10:18.835Z,44.20
2022-08-05T14:12:59.526Z,44.40
2022-08-05T14:16:05.017Z,44.50
2022-08-05T14:18:23.266Z,44.90
2022-08-05T14:20:54.383Z,44.90
2022-08-05T14:23:24.816Z,44.70
2022-08-05T14:25:58.650Z,44.50
2022-08-05T14:28:28.895Z,44.40
2022-08-05T14:30:57.248Z,44.60
2022-08-05T14:33:26.220Z,44.90
2022-08-05T14:35:58.316Z,44.70
2022-08-05T14:38:34.098Z,44.50
2022-08-05T14:41:07.825Z,44.70
2022-08-05T14:43:59.355Z,44.40
2022-08-05T14:46:30.575Z,44.20
2022-08-05T14:49:06.844Z,43.90
2022-08-05T14:51:38.287Z,43.90
2022-08-05T14:54:28.048Z,43.90
2022-08-05T14:56:59.505Z,43.80
2022-08-05T14:59:29.607Z,43.70
2022-08-05T15:02:04.064Z,43.40
2022-08-05T15:04:47.740Z,43.40
2022-08-05T15:08:06.661Z,43.20
2022-08-05T15:13:04.109Z,43.40
2022-08-05T15:15:55.324Z,43.40
2022-08-05T15:18:22.371Z,43.50
2022-08-05T15:20:54.420Z,43.20
2022-08-05T15:23:23.925Z,43.10
2022-08-05T15:25:55.901Z,43.00
2022-08-05T15:28:27.665Z,42.80
2022-08-05T15:30:57.346Z,42.70
2022-08-05T15:34:19.114Z,42.60
2022-08-05T15:36:17.175Z,42.40
2022-08-05T15:41:01.107Z,42.10
2022-08-05T15:41:56.299Z,42.10
2022-08-05T15:44:29.983Z,41.50
2022-08-05T15:46:59.372Z,41.00
2022-08-05T15:49:53.411Z,40.80
2022-08-05T15:52:28.999Z,40.50
2022-08-05T15:54:59.646Z,39.80
2022-08-05T15:57:33.027Z,39.40
2022-08-05T16:00:06.167Z,39.20
2022-08-05T16:02:35.404Z,39.00
2022-08-05T16:05:05.330Z,38.80
2022-08-05T16:07:38.424Z,38.50
2022-08-05T16:10:15.875Z,38.20
2022-08-05T16:12:52.305Z,38.10
2022-08-05T16:15:21.785Z,38.00
2022-08-05T16:17:57.987Z,37.90
2022-08-05T16:20:27.926Z,37.90
2022-08-05T16:23:00.950Z,37.80
2022-08-05T16:25:32.229Z,37.70
2022-08-05T16:28:09.762Z,37.50
2022-08-05T16:30:38.902Z,37.40
2022-08-05T16:33:10.345Z,37.30
2022-08-05T16:35:44.627Z,37.20
2022-08-05T16:38:23.707Z,36.90
2022-08-05T16:41:00.082Z,36.90
2022-08-05T16:43:32.708Z,36.60
2022-08-05T16:46:03.824Z,36.30
2022-08-05T16:48:40.724Z,36.10
2022-08-05T16:51:10.938Z,35.80
2022-08-05T16:54:02.742Z,35.60
2022-08-05T16:56:34.254Z,35.30
2022-08-05T16:59:08.529Z,34.90
2022-08-05T17:02:01.674Z,34.70
2022-08-05T17:04:29.887Z,34.60
2022-08-05T17:07:01.846Z,34.40
2022-08-05T17:09:57.657Z,33.90
2022-08-05T17:12:51.157Z,33.60
2022-08-05T17:15:19.347Z,33.20
2022-08-05T17:17:54.460Z,32.90
2022-08-05T17:20:27.485Z,32.70
2022-08-05T17:22:57.574Z,32.50
2022-08-05T17:25:40.252Z,32.40
2022-08-05T17:28:11.040Z,32.20
2022-08-05T17:30:50.745Z,32.10
2022-08-05T17:33:24.675Z,31.90
2022-08-05T17:36:08.139Z,31.80
2022-08-05T17:38:39.920Z,31.70
2022-08-05T17:41:22.728Z,31.50
2022-08-05T17:43:59.361Z,31.40
2022-08-05T17:46:27.742Z,31.30
2022-08-05T17:48:56.056Z,31.20
2022-08-05T17:51:26.970Z,31.00
2022-08-05T17:53:57.283Z,31.00
2022-08-05T17:56:28.366Z,30.80
2022-08-05T17:58:58.218Z,30.70
2022-08-05T18:01:26.321Z,30.70
2022-08-05T18:04:04.668Z,30.60
2022-08-05T18:06:33.976Z,30.50
2022-08-05T18:09:03.707Z,30.40
2022-08-05T18:11:34.016Z,30.40
2022-08-05T18:14:07.198Z,30.30
2022-08-05T18:16:46.849Z,30.30
2022-08-05T18:19:26.054Z,30.30
2022-08-05T18:22:07.592Z,30.20
2022-08-05T18:24:39.922Z,30.10
2022-08-05T18:27:12.626Z,30.10
2022-08-05T18:29:53.499Z,30.00
2022-08-05T18:32:27.606Z,29.90
2022-08-05T18:34:59.226Z,29.80
2022-08-05T18:37:34.683Z,29.70
2022-08-05T18:40:33.884Z,29.60
2022-08-05T18:42:58.518Z,29.50
2022-08-05T18:45:41.541Z,29.40
2022-08-05T18:48:30.123Z,29.30
2022-08-05T18:52:06.092Z,29.20
2022-08-05T18:54:06.662Z,29.20
2022-08-05T18:56:38.074Z,29.10
2022-08-05T18:59:43.466Z,29.10
2022-08-05T19:01:58.262Z,29.00
2022-08-05T19:04:26.861Z,29.00
2022-08-05T19:06:55.193Z,28.90
2022-08-05T19:09:23.442Z,28.70
2022-08-05T19:12:00.986Z,28.50
2022-08-05T19:14:59.194Z,28.40
2022-08-05T19:17:20.199Z,28.40
2022-08-05T19:19:50.469Z,28.30
2022-08-05T19:22:18.822Z,28.30
2022-08-05T19:24:55.850Z,28.20
2022-08-05T19:27:27.882Z,28.20
2022-08-05T19:30:03.203Z,28.10
2022-08-05T19:32:33.673Z,28.10
2022-08-05T19:35:05.833Z,28.10
2022-08-05T19:38:04.552Z,28.00
2022-08-05T19:40:24.518Z,27.90
2022-08-05T19:43:04.954Z,27.80
2022-08-05T19:45:36.888Z,27.70
2022-08-05T19:48:07.420Z,27.70
2022-08-05T19:50:46.800Z,27.70
2022-08-05T19:53:15.237Z,27.60
2022-08-05T19:56:13.603Z,27.60
2022-08-05T19:58:53.372Z,27.60
2022-08-05T20:01:28.084Z,27.50
2022-08-05T20:04:00.193Z,27.40
2022-08-05T20:06:32.908Z,27.30
2022-08-05T20:09:13.972Z,27.20
2022-08-05T20:11:48.278Z,27.10
2022-08-05T20:14:27.178Z,27.10
2022-08-05T20:17:01.728Z,27.10
2022-08-05T20:19:36.479Z,27.00
2022-08-05T20:22:09.868Z,27.00
2022-08-05T20:24:38.183Z,27.00
2022-08-05T20:27:11.583Z,27.00
2022-08-05T20:29:39.856Z,26.90
2022-08-05T20:32:08.354Z,26.80
2022-08-05T20:34:40.018Z,26.70
2022-08-05T20:37:18.122Z,26.70
2022-08-05T20:40:01.271Z,26.70
2022-08-05T20:42:29.738Z,26.70
2022-08-05T20:44:58.582Z,26.70
2022-08-05T20:47:31.803Z,26.60
2022-08-05T20:50:03.610Z,26.70
2022-08-05T20:52:41.390Z,26.70
2022-08-05T20:56:02.806Z,26.60
2022-08-05T20:58:02.471Z,26.70
2022-08-05T21:00:49.655Z,26.70
2022-08-05T21:03:23.553Z,26.60
2022-08-05T21:05:55.693Z,26.60
2022-08-05T21:08:41.799Z,26.60
2022-08-05T21:12:06.492Z,26.60
2022-08-05T21:14:02.521Z,26.60
2022-08-05T21:16:31.266Z,26.60
2022-08-05T21:19:00.702Z,26.60
2022-08-05T21:21:39.515Z,26.60
2022-08-05T21:24:13.343Z,26.60
2022-08-05T21:26:50.248Z,26.60
2022-08-05T21:29:26.654Z,26.60
2022-08-05T21:32:01.211Z,26.50
2022-08-05T21:34:31.755Z,26.60
2022-08-05T21:37:02.662Z,26.70
2022-08-05T21:39:31.023Z,26.70
2022-08-05T21:42:03.104Z,26.70
2022-08-05T21:44:31.910Z,26.70
2022-08-05T21:47:00.574Z,26.70
2022-08-05T21:49:58.835Z,26.80
2022-08-05T21:52:26.704Z,26.80
2022-08-05T21:55:06.930Z,26.80
2022-08-05T21:57:42.696Z,26.90
2022-08-05T22:00:14.587Z,26.90
2022-08-05T22:02:43.207Z,26.90
2022-08-05T22:05:15.459Z,26.90
2022-08-05T22:07:58.884Z,26.90
2022-08-05T22:10:29.635Z,26.90
2022-08-05T22:14:04.976Z,26.80
2022-08-05T22:16:01.945Z,26.80
2022-08-05T22:18:39.441Z,26.80
2022-08-05T22:21:19.416Z,26.80
2022-08-05T22:24:09.097Z,26.80
2022-08-05T22:26:59.956Z,26.80
2022-08-05T22:29:30.824Z,26.80
2022-08-05T22:32:02.840Z,26.80
2022-08-05T22:34:35.629Z,26.80
2022-08-05T22:37:05.468Z,26.80
2022-08-05T22:39:35.591Z,26.80
2022-08-05T22:42:12.448Z,26.80
2022-08-05T22:44:53.815Z,26.80
2022-08-05T22:47:29.268Z,26.90
2022-08-05T22:50:19.630Z,26.90
2022-08-05T22:52:51.460Z,26.80
2022-08-05T22:55:22.941Z,26.70
2022-08-05T22:57:52.579Z,26.70
2022-08-05T23:00:22.862Z,26.70
2022-08-05T23:02:54.725Z,26.60
2022-08-05T23:05:26.497Z,26.60
2022-08-05T23:07:55.474Z,26.50
2022-08-05T23:10:25.633Z,26.40
2022-08-05T23:12:57.577Z,26.50
2022-08-05T23:15:29.900Z,26.40
2022-08-05T23:18:11.774Z,26.40
2022-08-05T23:20:46.478Z,26.40
2022-08-05T23:23:18.147Z,26.40
2022-08-05T23:25:52.145Z,26.40
2022-08-05T23:28:23.925Z,26.30
2022-08-05T23:30:54.937Z,26.30
2022-08-05T23:34:02.974Z,26.30
2022-08-05T23:36:16.592Z,26.30
2022-08-05T23:38:45.714Z,26.30
2022-08-05T23:41:15.641Z,26.20
2022-08-05T23:44:05.915Z,26.20
2022-08-05T23:46:33.728Z,26.20
2022-08-05T23:49:16.739Z,26.10
2022-08-05T23:52:06.483Z,26.10
2022-08-05T23:54:38.255Z,26.10
2022-08-05T23:57:08.623Z,26.10
